Flight Track Log - Related Links

Times and Time Zones

All times are in EDT time to prevent confusion due to time zone crossing. See the LXJ541 flight status page for this flight to view local times or setup timezone preferences in your user account.

Time Position Orientation Groundspeed Altitude Reporting Facility
EDT Latitude Longitude Course Direction KTS MPH feet Rate Location/Type
Fri 05:11:59 PM 41.9000 -87.8667 171° South 231 266 4,600  Level Chicago TRACON
Fri 05:12:59 PM 41.8500 -87.8333 154° Southeast 247 284 5,600 3,275 Climbing Chicago TRACON
Fri 05:15:26 PM 41.6731 -87.7539 161° South 331 381 15,900 4,105 Climbing Chicago Center
Fri 05:16:28 PM 41.5803 -87.6872 152° Southeast 370 426 19,900 3,532 Climbing Chicago Center
Fri 05:17:00 PM 41.3058 -87.5402 171° South  Level FlightAware Approximate
Fri 05:17:30 PM 41.4856 -87.6161 151° Southeast 384 442 23,200  Level Chicago Center
Fri 05:18:32 PM 41.3747 -87.5639 161° South 425 489 25,300 2,419 Climbing Chicago Center
Fri 05:19:34 PM 41.2272 -87.5358 172° South 441 507 28,200 2,758 Climbing Chicago Center
Fri 05:20:36 PM 41.1039 -87.5064 170° South 447 514 31,000 2,592 Climbing Chicago Center
Fri 05:21:39 PM 40.9819 -87.4714 168° South 449 517 33,600 2,496 Climbing Chicago Center
Fri 05:22:41 PM 40.8692 -87.3850 150° Southeast 472 543 36,200 2,226 Climbing Chicago Center
Fri 05:23:43 PM 40.7986 -87.2275 121° Southeast 495 570 38,200 1,597 Climbing Chicago Center
Fri 05:24:45 PM 40.7836 -87.0403 96° East 510 587 39,500 1,210 Climbing Chicago Center
Fri 05:25:47 PM 40.8153 -86.8114 80° East 526 605 40,700 726 Climbing Chicago Center
Fri 05:26:49 PM 40.8428 -86.6183 79° East 532 612 41,000 145 Climbing Chicago Center
Fri 05:27:51 PM 40.8675 -86.4292 80° East 526 605 41,000  Level Chicago Center
Fri 05:28:53 PM 40.8922 -86.2408 80° East 524 603 41,000  Level Chicago Center
Fri 05:29:55 PM 40.9181 -86.0539 80° East 523 602 41,000  Level Chicago Center
Fri 05:30:57 PM 40.9417 -85.8644 81° East 524 603 41,000  Level Chicago Center
Fri 05:31:59 PM 40.9703 -85.6381 80° East 525 604 41,000  Level Chicago Center
Fri 05:33:01 PM 40.9939 -85.4472 81° East 528 608 41,000  Level Chicago Center
Fri 05:34:04 PM 41.0178 -85.2544 81° East 534 615 41,000  Level Chicago Center
Fri 05:35:06 PM 41.0411 -85.0631 81° East 535 616 41,000  Level Chicago Center
Fri 05:36:08 PM 41.0686 -84.8336 81° East 531 611 41,000  Level Chicago Center
Fri 05:37:10 PM 41.0914 -84.6417 81° East 530 610 41,000  Level Chicago Center
Fri 05:38:12 PM 41.1133 -84.4494 81° East 532 612 41,000  Level Chicago Center
Fri 05:39:14 PM 41.1406 -84.2583 79° East 530 610 41,000  Level Chicago Center
Fri 05:40:16 PM 41.1664 -84.0694 80° East 525 604 41,000  Level Chicago Center
Fri 05:41:18 PM 41.1933 -83.8814 79° East 524 603 41,000  Level Chicago Center
Fri 05:42:20 PM 41.2244 -83.6539 80° East 523 602 41,000  Level Chicago Center
Fri 05:43:09 PM 41.2411 -83.4967 82° East 525 604 41,000  Level Cleveland Center
Fri 05:44:09 PM 41.2689 -83.3072 79° East 519 597 41,000  Level Cleveland Center
Fri 05:45:09 PM 41.2961 -83.1175 79° East 519 597 41,000  Level Cleveland Center
Fri 05:46:09 PM 41.3211 -82.9250 80° East 524 603 41,000  Level Cleveland Center
Fri 05:47:09 PM 41.3456 -82.7350 80° East 524 603 41,000  Level Cleveland Center
Fri 05:48:09 PM 41.3700 -82.5394 80° East 524 603 41,000  Level Cleveland Center
Fri 05:49:09 PM 41.3939 -82.3492 80° East 518 596 41,000  Level Cleveland Center
Fri 05:50:09 PM 41.4175 -82.1614 80° East 521 600 41,000  Level Cleveland Center
Fri 05:51:09 PM 41.4408 -81.9708 81° East 521 600 41,000  Level Cleveland Center
Fri 05:52:09 PM 41.4636 -81.7994 80° East 521 600 41,000  Level Cleveland Center
Fri 05:53:09 PM 41.4864 -81.6058 81° East 526 605 41,000  Level Cleveland Center
Fri 05:54:09 PM 41.5067 -81.4178 82° East 521 600 41,000  Level Cleveland Center
Fri 05:55:09 PM 41.5308 -81.2072 81° East 521 600 41,000  Level Cleveland Center
Fri 05:56:09 PM 41.5528 -81.0161 81° East 516 594 41,000  Level Cleveland Center
Fri 05:57:09 PM 41.5742 -80.8275 81° East 522 601 41,000  Level Cleveland Center
Fri 05:58:09 PM 41.5953 -80.6414 81° East 522 601 41,000  Level Cleveland Center
Fri 05:59:09 PM 41.6139 -80.4525 82° East 516 594 41,000  Level Cleveland Center
Fri 06:00:09 PM 41.6344 -80.2858 81° East 516 594 41,000  Level Cleveland Center
Fri 06:01:09 PM 41.6547 -80.0969 82° East 516 594 41,000  Level Cleveland Center
Fri 06:02:09 PM 41.6744 -79.8881 83° East 511 588 41,000  Level Cleveland Center
Fri 06:03:10 PM 41.6919 -79.7211 82° East 511 588 41,000  Level Cleveland Center
Fri 06:04:09 PM 41.7069 -79.5125 84° East 511 588 41,000  Level Cleveland Center
Fri 06:05:09 PM 41.7156 -79.3231 86° East 511 588 41,000  Level Cleveland Center
Fri 06:06:10 PM 41.7239 -79.1503 86° East 511 588 41,000  Level Cleveland Center
Fri 06:07:10 PM 41.7317 -78.9611 87° East 511 588 41,000  Level Cleveland Center
Fri 06:08:09 PM 41.7411 -78.7436 87° East 522 601 41,000  Level Cleveland Center
Fri 06:09:09 PM 41.7483 -78.5542 87° East 517 595 41,000  Level Cleveland Center
Fri 06:10:09 PM 41.7550 -78.3619 87° East 517 595 41,000  Level Cleveland Center
Fri 06:12:06 PM 41.7692 -78.0131 87° East 514 592 41,000 -716 Level New York Center
Fri 06:13:05 PM 41.7767 -77.8219 87° East 514 592 38,900 -2,450 Descending New York Center
Fri 06:14:06 PM 41.7817 -77.6306 88° East 514 592 36,100 -1,934 Descending New York Center
Fri 06:15:06 PM 41.7533 -77.4331 101° East 521 600 35,000 -1,008 Descending New York Center
Fri 06:16:05 PM 41.7014 -77.2414 110° East 530 610 34,100 -1,350 Descending New York Center
Fri 06:17:06 PM 41.6511 -77.0533 110° East 536 617 32,300 -1,869 Descending New York Center
Fri 06:18:07 PM 41.6042 -76.8714 109° East 531 611 30,300 -2,067 Descending New York Center
Fri 06:19:05 PM 41.5475 -76.6750 111° Southeast 525 604 28,200 -1,966 Descending New York Center
Fri 06:20:06 PM 41.4997 -76.5017 110° East 511 588 26,400 -1,721 Descending New York Center
Fri 06:21:07 PM 41.4575 -76.3378 109° East 491 565 24,700 -1,627 Descending New York Center
Fri 06:22:04 PM 41.4181 -76.1989 111° Southeast 486 559 23,200 -1,576 Descending New York Center
Fri 06:23:05 PM 41.3675 -76.0289 112° Southeast 473 544 21,600 -1,587 Descending New York Center
Fri 06:24:05 PM 41.3242 -75.8792 111° Southeast 454 522 20,000 -1,672 Descending New York Center
Fri 06:25:07 PM 41.2806 -75.7239 110° East 442 509 18,200 -1,916 Descending New York Center
Fri 06:26:04 PM 41.2364 -75.5828 113° Southeast 431 496 16,200 -2,359 Descending New York Center
Fri 06:27:04 PM 41.1864 -75.4275 113° Southeast 415 478 13,600 -2,281 Descending New York Center
Fri 06:28:05 PM 41.1433 -75.3033 115° Southeast 387 445 11,600 -1,884 Descending New York Center
Fri 06:29:05 PM 41.1117 -75.2047 113° Southeast 340 391 9,800 -1,587 Descending New York Center
Fri 06:30:06 PM 41.0778 -75.1089 115° Southeast 301 346 8,400 -1,736 Descending New York Center
Fri 06:31:06 PM 41.0439 -75.0078 114° Southeast 278 320 6,300 -1,220 Descending New York Center
Fri 06:32:04 PM 41.0117 -74.9150 115° Southeast 268 308 6,000 -153 Descending New York Center
Fri 06:33:04 PM 41.0275 -74.8225 77° East 247 284 6,000 -248 Level New York Center
Fri 06:34:05 PM 41.0633 -74.7475 58° Northeast 247 284 5,500 -942 Descending New York Center
Fri 06:35:05 PM 41.0875 -74.6472 72° East 252 290 4,100 -744 Descending New York Center
Fri 06:36:06 PM 41.0842 -74.5589 93° East 252 290 4,000 -99 Descending New York Center
Fri 06:37:06 PM 41.0750 -74.4539 97° East 257 296 3,900 -541 Descending New York Center
Fri 06:37:57 PM 41.0667 -74.3667 97° East 252 290 3,000 -486 Descending New York TRACON
Fri 06:38:57 PM 41.0500 -74.2833 105° East 269 310 3,000 -100 Level New York TRACON
Fri 06:39:57 PM 41.0500 -74.1833 90° East 256 295 2,800 -500 Descending New York TRACON
Fri 06:40:57 PM 41.0333 -74.1000 105° East 235 270 2,000 -417 Descending New York TRACON
Fri 06:41:52 PM 41.0000 -74.0500 131° Southeast 192 221 2,000  Level New York TRACON
Fri 06:42:51 PM 40.9500 -74.0500 180° South 178 205 2,000 -454 Level New York TRACON
Fri 06:43:51 PM 40.9167 -74.0500 180° South 160 184 1,100 -800 Descending New York TRACON
Fri 06:44:51 PM 40.8667 -74.0667 194° South 140 161 400 1,515 Descending New York TRACON
Fri 06:47:05 PM 40.7822 -74.0708 182° South 153 176 6,000 1,723 Climbing New York Center
Fri 06:48:06 PM 40.7406 -74.0742 183° South 153 176 6,000  Level New York Center
Fri 06:49:06 PM 40.6986 -74.0803 186° South 153 176 6,000  Level New York Center
Fri 06:50:04 PM 40.6986 -74.0803 57° Northeast 153 176 6,000  Level New York Center

Login

Don't have an account? Register now (free) for customized features, flight alerts, and more!